首页
METAR-TAF:

METAR-TAF

机场 :

Chatham-Kent Municipal Airport

查塔姆-肯特, 安大略省, 加拿大

纬度: 42-18-22N, 经度: 82-04-54W, 海拔: 197米

当前天气观测

该预报发布于21分钟前的20:00 UTC
风速13节,风向南转西南
温度 26°C
湿度 70%
气压 1005 hPa
能見度: 14.5公里
多云层高于14000英尺
多云层高于16000英尺

METAR: CYCK 242000Z AUTO 20013KT 9SM BKN140 BKN160 26/20 A2969 RMK SLP051 DENSITY ALT 2200FT

时间: 16:21 (20:21 UTC)


TAF: 丢失

超过4000个机场的气象观测和天气预报(METAR&TAF报告)。

可查询的气象台以黄色和红色小点在地图上表示。

将鼠标移到小点上方,可查看气象台名称。

然后点击查看天气观测和预报。

如需切换地图:点击带黑十字的绿色按钮放大地图;点击带横线的绿色按钮缩小地图;或者点击绿色箭头查看邻近地区的地图。


METAR-TAF: